Time;durP1;ratioP1;P1;durP2;ratioP2;P2;SDS_P1;SDS_P2;PMS_P1;PMS_P2;Temp;Humidity;BMP_temperature;BMP_pressure;BME280_temperature;BME280_humidity;BME280_pressure;Samples;Min_cycle;Max_cycle;Signal;HPM_P1;HPM_P2
2023/03/22 00:01:15;;;;;;;3.65;1.60;;;;;;;;;;5076410;28;20051;-79
2023/03/22 00:03:41;;;;;;;5.10;1.60;;;;;;;;;;5074988;28;20016;-79
2023/03/22 00:06:07;;;;;;;2.70;1.35;;;;;;;;;;5075950;28;20033;-79
2023/03/22 00:08:33;;;;;;;1.88;1.40;;;;;;;;;;5076094;28;20090;-79
2023/03/22 00:10:59;;;;;;;3.45;1.50;;;;;;;;;;5074701;28;20087;-79
2023/03/22 00:13:24;;;;;;;3.25;1.75;;;;;;;;;;5074448;28;20037;-80
2023/03/22 00:15:49;;;;;;;1.80;1.30;;;;;;;;;;5076110;28;20029;-80
2023/03/22 00:18:15;;;;;;;5.32;1.63;;;;;;;;;;5074577;28;20070;-80
2023/03/22 00:20:49;;;;;;;4.47;1.70;;;;;;;;;;5075655;28;20029;-80
2023/03/22 00:23:14;;;;;;;2.15;1.50;;;;;;;;;;5074249;28;20028;-80
2023/03/22 00:25:40;;;;;;;3.20;1.33;;;;;;;;;;5075384;28;20085;-80
2023/03/22 00:28:05;;;;;;;5.78;1.75;;;;;;;;;;5075081;28;20478;-80
2023/03/22 00:30:30;;;;;;;5.03;1.50;;;;;;;;;;5074302;28;20028;-79
2023/03/22 00:32:56;;;;;;;4.22;1.25;;;;;;;;;;5074489;28;20031;-79
2023/03/22 00:35:21;;;;;;;3.75;1.35;;;;;;;;;;5075277;28;20025;-80
2023/03/22 00:37:50;;;;;;;2.83;1.20;;;;;;;;;;5075328;28;20025;-79
2023/03/22 00:40:16;;;;;;;1.52;1.20;;;;;;;;;;5075522;28;20035;-79
2023/03/22 00:42:41;;;;;;;4.03;1.30;;;;;;;;;;5074272;28;20025;-79
2023/03/22 00:45:09;;;;;;;2.40;1.40;;;;;;;;;;5074013;28;20036;-79
2023/03/22 00:47:35;;;;;;;2.20;1.35;;;;;;;;;;5074050;28;20028;-79
2023/03/22 00:50:01;;;;;;;4.88;1.58;;;;;;;;;;5073774;28;20360;-79
2023/03/22 00:52:27;;;;;;;4.57;1.60;;;;;;;;;;5073805;28;20103;-79
2023/03/22 00:54:53;;;;;;;3.50;1.60;;;;;;;;;;5074437;28;20052;-79
2023/03/22 00:57:18;;;;;;;2.65;1.23;;;;;;;;;;5073768;28;20066;-79
2023/03/22 00:59:44;;;;;;;2.75;1.48;;;;;;;;;;5073765;28;20031;-78
2023/03/22 01:02:12;;;;;;;4.82;1.20;;;;;;;;;;5075090;28;20467;-78
2023/03/22 01:04:48;;;;;;;3.50;1.33;;;;;;;;;;5073813;28;20036;-79
2023/03/22 01:07:20;;;;;;;5.28;1.30;;;;;;;;;;5073666;28;20025;-78
2023/03/22 01:09:47;;;;;;;2.83;1.33;;;;;;;;;;5073556;28;20051;-78
2023/03/22 01:12:13;;;;;;;2.67;1.38;;;;;;;;;;5073426;28;20023;-78
2023/03/22 01:14:39;;;;;;;2.70;1.30;;;;;;;;;;5073573;28;20028;-78
2023/03/22 01:17:06;;;;;;;3.60;1.27;;;;;;;;;;5073826;28;20052;-78
2023/03/22 01:19:32;;;;;;;2.00;1.20;;;;;;;;;;5073763;28;20031;-78
2023/03/22 01:21:58;;;;;;;4.10;1.70;;;;;;;;;;5057065;28;20124;-78
2023/03/22 01:24:23;;;;;;;3.88;1.60;;;;;;;;;;5073162;28;20098;-78
2023/03/22 01:26:49;;;;;;;2.58;1.42;;;;;;;;;;5056411;28;20037;-78
2023/03/22 01:29:14;;;;;;;4.20;1.50;;;;;;;;;;5089738;28;20051;-79
2023/03/22 01:31:40;;;;;;;5.93;1.80;;;;;;;;;;5090272;28;20379;-79
2023/03/22 01:34:06;;;;;;;3.05;1.50;;;;;;;;;;5089885;28;20036;-79
2023/03/22 01:36:31;;;;;;;2.45;1.38;;;;;;;;;;5073192;28;20378;-79
2023/03/22 01:38:57;;;;;;;1.48;1.25;;;;;;;;;;5074120;28;20028;-79
2023/03/22 01:41:22;;;;;;;6.30;1.60;;;;;;;;;;5056206;28;20516;-79
2023/03/22 01:44:11;;;;;;;2.83;1.45;;;;;;;;;;5089507;28;20130;-79
2023/03/22 01:46:38;;;;;;;2.35;1.55;;;;;;;;;;5072827;28;20029;-79
2023/03/22 01:49:04;;;;;;;3.00;1.58;;;;;;;;;;5072723;28;20044;-79
2023/03/22 01:51:29;;;;;;;2.10;1.38;;;;;;;;;;5072701;28;20049;-79
2023/03/22 01:54:06;;;;;;;3.75;1.60;;;;;;;;;;5072666;28;20107;-79
2023/03/22 01:56:35;;;;;;;4.63;1.48;;;;;;;;;;5072681;28;20532;-79
2023/03/22 01:59:01;;;;;;;2.80;1.65;;;;;;;;;;5072841;28;20108;-79
2023/03/22 02:01:27;;;;;;;2.90;1.55;;;;;;;;;;5073236;28;20110;-79
2023/03/22 02:03:57;;;;;;;4.45;1.50;;;;;;;;;;5072756;28;20530;-81
2023/03/22 02:06:23;;;;;;;3.20;1.42;;;;;;;;;;5073000;28;20029;-80
2023/03/22 02:08:51;;;;;;;2.45;1.23;;;;;;;;;;5039706;28;20072;-80
2023/03/22 02:11:20;;;;;;;2.70;1.48;;;;;;;;;;5072607;28;20055;-80
2023/03/22 02:13:57;;;;;;;2.17;1.25;;;;;;;;;;5072761;28;20043;-80
2023/03/22 02:16:58;;;;;;;3.00;1.58;;;;;;;;;;5073446;28;20032;-80
2023/03/22 02:19:50;;;;;;;2.38;1.33;;;;;;;;;;5072241;28;20031;-80
2023/03/22 02:22:37;;;;;;;3.40;1.45;;;;;;;;;;5073358;28;20028;-80
2023/03/22 02:25:07;;;;;;;2.92;1.30;;;;;;;;;;5073292;28;20020;-81
2023/03/22 02:27:56;;;;;;;2.47;1.70;;;;;;;;;;5089105;28;20032;-80
2023/03/22 02:30:47;;;;;;;3.92;1.33;;;;;;;;;;5073334;28;20021;-81
2023/03/22 02:33:49;;;;;;;3.13;1.60;;;;;;;;;;5071871;28;20024;-81
2023/03/22 02:36:52;;;;;;;2.40;1.42;;;;;;;;;;5072028;28;20024;-81
2023/03/22 02:39:49;;;;;;;5.82;1.65;;;;;;;;;;5073071;28;20040;-81
2023/03/22 02:42:39;;;;;;;2.72;1.30;;;;;;;;;;5068789;28;20403;-81
2023/03/22 02:45:43;;;;;;;2.15;1.15;;;;;;;;;;5072942;28;20031;-80
2023/03/22 02:48:11;;;;;;;4.13;1.60;;;;;;;;;;4995323;28;20078;-80
2023/03/22 02:50:52;;;;;;;2.80;1.48;;;;;;;;;;5010998;28;20092;-81
2023/03/22 02:53:22;;;;;;;2.63;1.40;;;;;;;;;;4995313;28;20121;-80
2023/03/22 02:55:58;;;;;;;3.08;1.60;;;;;;;;;;5011232;28;20033;-81
2023/03/22 02:58:38;;;;;;;3.90;1.77;;;;;;;;;;4994949;28;20030;-81
2023/03/22 03:01:09;;;;;;;3.05;1.70;;;;;;;;;;4995073;28;20057;-82
2023/03/22 03:03:39;;;;;;;3.25;1.90;;;;;;;;;;5000940;28;20172;-81
2023/03/22 03:06:08;;;;;;;3.08;1.77;;;;;;;;;;4997887;28;20038;-79
2023/03/22 03:08:36;;;;;;;3.08;1.70;;;;;;;;;;4996570;28;20044;-80
2023/03/22 03:11:01;;;;;;;3.92;1.60;;;;;;;;;;4995805;28;20025;-79
2023/03/22 03:13:27;;;;;;;3.55;1.92;;;;;;;;;;5015948;28;20025;-81
2023/03/22 03:15:58;;;;;;;4.32;1.90;;;;;;;;;;4995344;28;20038;-80
2023/03/22 03:18:50;;;;;;;4.95;1.63;;;;;;;;;;4995477;28;20025;-80
2023/03/22 03:21:34;;;;;;;9.73;1.80;;;;;;;;;;5020669;28;20040;-80
2023/03/22 03:24:03;;;;;;;;;;;;;;;;;;5071857;28;20035;-77
2023/03/22 03:26:38;;;;;;;3.50;1.80;;;;;;;;;;5072809;28;19919;-80
2023/03/22 03:29:11;;;;;;;2.58;1.75;;;;;;;;;;5071441;28;20425;-80
2023/03/22 03:31:43;;;;;;;3.25;1.80;;;;;;;;;;5071510;28;20027;-80
2023/03/22 03:34:51;;;;;;;4.28;1.92;;;;;;;;;;5072815;28;20106;-79
2023/03/22 03:37:25;;;;;;;2.28;1.52;;;;;;;;;;5062049;28;20032;-79
2023/03/22 03:40:00;;;;;;;4.97;1.95;;;;;;;;;;5071346;28;20024;-80
2023/03/22 03:42:27;;;;;;;3.10;1.88;;;;;;;;;;5071324;28;20031;-80
2023/03/22 03:44:52;;;;;;;4.35;2.20;;;;;;;;;;5088022;28;20506;-80
2023/03/22 03:47:18;;;;;;;2.95;1.88;;;;;;;;;;5071220;28;20040;-80
2023/03/22 03:49:44;;;;;;;3.40;1.83;;;;;;;;;;5070887;28;20503;-80
2023/03/22 03:52:10;;;;;;;3.85;1.90;;;;;;;;;;5073082;28;20486;-81
2023/03/22 03:54:35;;;;;;;3.45;1.88;;;;;;;;;;5076054;28;20107;-80
2023/03/22 03:57:01;;;;;;;3.38;1.90;;;;;;;;;;5074681;28;20387;-80
2023/03/22 03:59:26;;;;;;;4.28;2.20;;;;;;;;;;5058365;28;20036;-80
2023/03/22 04:01:51;;;;;;;3.22;1.67;;;;;;;;;;5074786;28;20032;-80
2023/03/22 04:04:26;;;;;;;3.15;1.92;;;;;;;;;;5074935;28;20032;-81
2023/03/22 04:06:55;;;;;;;3.78;2.00;;;;;;;;;;5074890;28;20029;-80
2023/03/22 04:09:26;;;;;;;2.80;1.92;;;;;;;;;;5074968;28;20029;-81
2023/03/22 04:11:52;;;;;;;2.10;1.80;;;;;;;;;;5074713;28;20023;-81
2023/03/22 04:14:17;;;;;;;3.03;1.92;;;;;;;;;;5074902;28;20074;-81
2023/03/22 04:16:43;;;;;;;3.88;1.80;;;;;;;;;;5074761;28;20032;-82
2023/03/22 04:19:08;;;;;;;3.35;1.90;;;;;;;;;;5074461;28;20040;-81
2023/03/22 04:21:34;;;;;;;5.20;2.42;;;;;;;;;;5074877;28;20036;-81
2023/03/22 04:24:00;;;;;;;3.45;2.05;;;;;;;;;;5074393;28;20035;-81
2023/03/22 04:26:25;;;;;;;3.15;2.15;;;;;;;;;;5074260;28;20074;-81
2023/03/22 04:28:51;;;;;;;5.90;2.00;;;;;;;;;;5057925;28;20032;-82
2023/03/22 04:31:17;;;;;;;3.22;1.92;;;;;;;;;;5074239;28;20028;-81
2023/03/22 04:33:46;;;;;;;3.80;2.03;;;;;;;;;;5091174;28;20479;-81
2023/03/22 04:36:16;;;;;;;2.78;1.95;;;;;;;;;;5075387;28;20032;-81
2023/03/22 04:38:42;;;;;;;3.28;1.92;;;;;;;;;;5075582;28;20025;-80
2023/03/22 04:41:08;;;;;;;5.72;2.08;;;;;;;;;;5073950;28;20024;-80
2023/03/22 04:43:34;;;;;;;4.15;2.00;;;;;;;;;;5057661;28;20067;-80
2023/03/22 04:46:03;;;;;;;3.70;2.10;;;;;;;;;;5076149;28;20067;-80
2023/03/22 04:48:28;;;;;;;4.57;2.00;;;;;;;;;;5090801;28;20063;-80
2023/03/22 04:50:54;;;;;;;3.33;2.05;;;;;;;;;;5074913;28;20072;-82
2023/03/22 04:53:25;;;;;;;2.70;2.03;;;;;;;;;;5075078;28;20029;-81
2023/03/22 04:55:52;;;;;;;2.80;2.00;;;;;;;;;;5075247;28;20024;-80
2023/03/22 04:58:20;;;;;;;3.30;2.00;;;;;;;;;;5075118;28;20036;-80
2023/03/22 05:00:47;;;;;;;3.03;2.00;;;;;;;;;;5074653;28;20387;-81
2023/03/22 05:03:12;;;;;;;4.28;2.30;;;;;;;;;;5073247;28;20113;-80
2023/03/22 05:05:38;;;;;;;2.38;1.98;;;;;;;;;;5090708;28;20479;-80
2023/03/22 05:08:05;;;;;;;2.17;1.77;;;;;;;;;;5073916;28;20028;-80
2023/03/22 05:10:31;;;;;;;2.65;1.90;;;;;;;;;;5074199;28;20032;-80
2023/03/22 05:12:56;;;;;;;2.58;1.90;;;;;;;;;;5074466;28;20146;-79
2023/03/22 05:15:22;;;;;;;5.20;2.03;;;;;;;;;;5074284;28;20421;-81
2023/03/22 05:17:47;;;;;;;4.57;2.08;;;;;;;;;;5075658;28;20099;-81
2023/03/22 05:20:13;;;;;;;2.92;1.80;;;;;;;;;;5074144;28;20112;-80
2023/03/22 05:22:39;;;;;;;3.40;1.83;;;;;;;;;;5073827;28;20501;-80
2023/03/22 05:25:06;;;;;;;5.07;2.13;;;;;;;;;;5073728;28;20036;-80
2023/03/22 05:27:33;;;;;;;3.85;1.80;;;;;;;;;;5074784;28;20025;-81
2023/03/22 05:29:59;;;;;;;5.50;1.73;;;;;;;;;;5073683;28;20055;-79
2023/03/22 05:32:24;;;;;;;3.67;1.90;;;;;;;;;;5056629;28;20467;-79
2023/03/22 05:34:50;;;;;;;2.83;2.05;;;;;;;;;;5074650;28;20025;-78
2023/03/22 05:37:15;;;;;;;4.97;2.30;;;;;;;;;;5093193;28;20032;-88
2023/03/22 05:39:41;;;;;;;6.93;2.13;;;;;;;;;;5074588;28;20430;-86
2023/03/22 05:42:06;;;;;;;7.10;2.30;;;;;;;;;;5073383;28;20134;-86
2023/03/22 05:44:32;;;;;;;5.57;2.47;;;;;;;;;;5073534;28;20348;-87
2023/03/22 05:46:57;;;;;;;8.02;2.70;;;;;;;;;;5073180;28;20123;-88
2023/03/22 05:49:23;;;;;;;7.80;2.40;;;;;;;;;;5074134;28;20055;-85
2023/03/22 05:51:49;;;;;;;5.25;2.45;;;;;;;;;;5073083;28;20064;-86
2023/03/22 05:54:14;;;;;;;12.25;2.55;;;;;;;;;;5056623;28;20028;-84
2023/03/22 05:56:40;;;;;;;10.88;2.65;;;;;;;;;;5072865;28;20028;-85
2023/03/22 05:59:05;;;;;;;12.48;2.63;;;;;;;;;;5072833;28;20043;-85
2023/03/22 06:01:32;;;;;;;29.98;5.65;;;;;;;;;;5056471;28;20030;-87
2023/03/22 06:03:57;;;;;;;23.42;5.30;;;;;;;;;;5073003;28;20025;-86
2023/03/22 06:06:23;;;;;;;18.25;5.18;;;;;;;;;;5056284;28;20033;-85
2023/03/22 06:08:48;;;;;;;20.27;3.65;;;;;;;;;;5073307;28;20033;-83
2023/03/22 06:11:14;;;;;;;16.33;4.15;;;;;;;;;;5074819;28;20028;-88
2023/03/22 06:13:39;;;;;;;15.98;3.83;;;;;;;;;;5075849;28;20033;-87
2023/03/22 06:16:05;;;;;;;14.05;3.88;;;;;;;;;;5077366;28;20028;-87
2023/03/22 06:18:31;;;;;;;11.55;3.30;;;;;;;;;;5075135;28;20059;-87
2023/03/22 06:20:57;;;;;;;14.13;4.05;;;;;;;;;;5073478;28;20074;-88
2023/03/22 06:23:22;;;;;;;14.23;3.08;;;;;;;;;;5073014;28;20449;-88
2023/03/22 06:25:48;;;;;;;20.25;3.10;;;;;;;;;;5072728;28;20029;-86
2023/03/22 06:28:13;;;;;;;16.33;3.35;;;;;;;;;;5074736;28;20127;-84
2023/03/22 06:30:39;;;;;;;30.98;2.80;;;;;;;;;;5074594;28;20037;-82
2023/03/22 06:33:05;;;;;;;8.32;2.42;;;;;;;;;;5076983;28;20091;-83
2023/03/22 06:35:34;;;;;;;7.50;2.13;;;;;;;;;;5072088;28;20047;-83
2023/03/22 06:38:00;;;;;;;8.50;2.42;;;;;;;;;;5055258;28;20037;-81
2023/03/22 06:40:26;;;;;;;6.03;2.40;;;;;;;;;;5086005;28;20527;-88
2023/03/22 06:42:53;;;;;;;7.35;2.65;;;;;;;;;;5072152;28;20532;-83
2023/03/22 06:45:19;;;;;;;8.93;2.17;;;;;;;;;;5073547;28;20064;-82
2023/03/22 06:47:44;;;;;;;5.20;2.22;;;;;;;;;;5089340;28;20470;-84
2023/03/22 06:50:10;;;;;;;7.20;2.03;;;;;;;;;;5075304;28;20051;-83
2023/03/22 06:52:35;;;;;;;5.90;2.28;;;;;;;;;;5092441;28;20040;-85
2023/03/22 06:55:01;;;;;;;7.13;2.28;;;;;;;;;;5092803;28;20021;-84
2023/03/22 06:57:26;;;;;;;5.00;2.03;;;;;;;;;;5080935;28;20387;-86
2023/03/22 06:59:52;;;;;;;5.55;1.80;;;;;;;;;;5055329;28;20395;-83
2023/03/22 07:02:17;;;;;;;5.97;2.05;;;;;;;;;;5055552;28;20044;-84
2023/03/22 07:04:44;;;;;;;6.72;1.88;;;;;;;;;;5073628;28;20082;-85
2023/03/22 07:07:10;;;;;;;8.18;2.22;;;;;;;;;;5066639;28;20039;-86
2023/03/22 07:09:35;;;;;;;6.07;2.20;;;;;;;;;;5093615;28;20028;-86
2023/03/22 07:12:01;;;;;;;6.25;2.20;;;;;;;;;;5092949;28;20085;-86
2023/03/22 07:14:27;;;;;;;6.15;1.67;;;;;;;;;;5092563;28;20031;-88
2023/03/22 07:16:52;;;;;;;5.90;2.00;;;;;;;;;;5093119;28;20039;-86
2023/03/22 07:19:18;;;;;;;4.60;1.67;;;;;;;;;;5092328;28;20114;-86
2023/03/22 07:21:43;;;;;;;5.13;1.67;;;;;;;;;;5093016;28;20391;-88
2023/03/22 07:24:10;;;;;;;3.40;1.67;;;;;;;;;;5075435;28;20040;-81
2023/03/22 07:26:37;;;;;;;5.72;1.83;;;;;;;;;;5093004;28;20032;-86
2023/03/22 07:29:02;;;;;;;2.65;1.88;;;;;;;;;;5082612;28;20032;-91
2023/03/22 07:31:28;;;;;;;13.05;1.90;;;;;;;;;;5079925;28;20031;-82
2023/03/22 07:33:53;;;;;;;4.38;1.70;;;;;;;;;;5095910;28;20028;-82
2023/03/22 07:36:24;;;;;;;2.70;1.45;;;;;;;;;;5095562;28;20074;-82
2023/03/22 07:38:50;;;;;;;3.40;1.90;;;;;;;;;;5097130;28;20035;-83
2023/03/22 07:41:16;;;;;;;3.28;1.48;;;;;;;;;;5095958;28;20503;-82
2023/03/22 07:43:42;;;;;;;5.35;1.75;;;;;;;;;;5095642;28;20613;-82
2023/03/22 07:46:07;;;;;;;5.03;1.80;;;;;;;;;;5097423;28;20031;-81
2023/03/22 07:48:33;;;;;;;2.67;1.27;;;;;;;;;;5095142;28;20062;-82
2023/03/22 07:50:59;;;;;;;2.05;1.20;;;;;;;;;;5062152;28;20101;-82
2023/03/22 07:53:25;;;;;;;5.28;1.77;;;;;;;;;;5078091;28;20044;-82
2023/03/22 07:55:50;;;;;;;4.15;1.50;;;;;;;;;;5078587;28;20028;-83
2023/03/22 07:58:16;;;;;;;3.60;1.48;;;;;;;;;;5078644;28;20033;-82
2023/03/22 08:00:41;;;;;;;2.42;1.45;;;;;;;;;;5057938;28;20046;-81
2023/03/22 08:03:06;;;;;;;4.35;1.52;;;;;;;;;;5073205;28;20527;-81
2023/03/22 08:05:32;;;;;;;2.63;1.40;;;;;;;;;;5078328;28;20482;-81
2023/03/22 08:07:57;;;;;;;3.85;1.40;;;;;;;;;;5096863;28;20024;-84
2023/03/22 08:10:23;;;;;;;3.22;1.40;;;;;;;;;;5078186;28;20085;-82
2023/03/22 08:12:48;;;;;;;3.20;1.45;;;;;;;;;;5095812;28;20047;-81
2023/03/22 08:15:13;;;;;;;6.43;1.80;;;;;;;;;;5096993;28;20490;-80
2023/03/22 08:17:39;;;;;;;3.03;1.42;;;;;;;;;;5096169;28;20039;-81
2023/03/22 08:20:07;;;;;;;4.50;1.50;;;;;;;;;;5096225;28;20039;-88
2023/03/22 08:22:34;;;;;;;6.22;1.95;;;;;;;;;;5095223;28;20125;-89
2023/03/22 08:25:00;;;;;;;3.40;1.38;;;;;;;;;;5070353;28;20093;-84
2023/03/22 08:27:26;;;;;;;4.35;1.65;;;;;;;;;;5057844;28;20024;-81
2023/03/22 08:29:51;;;;;;;5.03;1.48;;;;;;;;;;5083787;28;20027;-83
2023/03/22 08:32:17;;;;;;;3.97;1.40;;;;;;;;;;5096225;28;20126;-84
2023/03/22 08:34:43;;;;;;;2.92;1.52;;;;;;;;;;5096112;28;20085;-85
2023/03/22 08:37:09;;;;;;;2.22;1.13;;;;;;;;;;5096164;28;20024;-85
2023/03/22 08:39:35;;;;;;;4.78;1.17;;;;;;;;;;5089739;28;20028;-85
2023/03/22 08:42:01;;;;;;;2.00;1.00;;;;;;;;;;5074443;28;20028;-87
2023/03/22 08:44:26;;;;;;;4.30;1.48;;;;;;;;;;5076776;28;20059;-86
2023/03/22 08:46:52;;;;;;;4.40;1.55;;;;;;;;;;5077668;28;20119;-86
2023/03/22 08:49:18;;;;;;;3.20;1.30;;;;;;;;;;5061269;28;20046;-86
2023/03/22 08:51:43;;;;;;;4.18;1.75;;;;;;;;;;5095821;28;20067;-82
2023/03/22 08:54:09;;;;;;;7.47;1.75;;;;;;;;;;5095787;28;20028;-86
2023/03/22 08:56:36;;;;;;;2.40;1.23;;;;;;;;;;5079790;28;20027;-86
2023/03/22 08:59:03;;;;;;;6.60;1.52;;;;;;;;;;5076158;28;20475;-82
2023/03/22 09:01:29;;;;;;;5.80;1.45;;;;;;;;;;5075586;28;20039;-83
2023/03/22 09:03:55;;;;;;;4.75;1.67;;;;;;;;;;5078618;28;20111;-83
2023/03/22 09:06:20;;;;;;;3.90;1.55;;;;;;;;;;5095113;28;20494;-84
2023/03/22 09:08:47;;;;;;;1.75;1.08;;;;;;;;;;5079254;28;20028;-84
2023/03/22 09:11:13;;;;;;;4.80;1.30;;;;;;;;;;5078951;28;20052;-92
2023/03/22 09:13:38;;;;;;;6.35;2.15;;;;;;;;;;5079589;28;20050;-91
2023/03/22 09:16:07;;;;;;;3.38;1.40;;;;;;;;;;5061676;28;20024;-87
2023/03/22 09:18:33;;;;;;;5.00;1.48;;;;;;;;;;5094528;28;20028;-83
2023/03/22 09:20:58;;;;;;;6.70;1.33;;;;;;;;;;5050220;28;20034;-86
2023/03/22 09:23:23;;;;;;;4.05;1.40;;;;;;;;;;5060546;28;20069;-83
2023/03/22 09:25:50;;;;;;;3.10;1.33;;;;;;;;;;5094288;28;20040;-88
2023/03/22 09:28:15;;;;;;;2.92;1.40;;;;;;;;;;5060892;28;20034;-86
2023/03/22 09:30:41;;;;;;;6.95;1.48;;;;;;;;;;5074366;28;20032;-86
2023/03/22 09:33:07;;;;;;;3.15;1.50;;;;;;;;;;5071559;28;20024;-82
2023/03/22 09:35:33;;;;;;;5.65;1.38;;;;;;;;;;5084755;28;20094;-81
2023/03/22 09:37:58;;;;;;;3.80;1.30;;;;;;;;;;5057302;28;20483;-82
2023/03/22 09:40:28;;;;;;;6.25;1.30;;;;;;;;;;5076377;28;20120;-79
2023/03/22 09:42:55;;;;;;;4.53;1.20;;;;;;;;;;5061134;28;20051;-82
2023/03/22 09:45:29;;;;;;;2.53;1.17;;;;;;;;;;5074064;28;20067;-82
2023/03/22 09:47:55;;;;;;;2.17;1.23;;;;;;;;;;5074012;28;20040;-81
2023/03/22 09:50:23;;;;;;;2.47;1.20;;;;;;;;;;5061511;28;20056;-82
2023/03/22 09:52:49;;;;;;;2.42;1.23;;;;;;;;;;5078960;28;20031;-83
2023/03/22 09:55:24;;;;;;;3.97;1.50;;;;;;;;;;5077765;28;20031;-83
2023/03/22 09:58:02;;;;;;;4.28;1.50;;;;;;;;;;5077447;28;20411;-83
2023/03/22 10:00:39;;;;;;;2.80;1.25;;;;;;;;;;5076655;28;20020;-82
2023/03/22 10:03:31;;;;;;;4.40;1.42;;;;;;;;;;5059618;28;20466;-84
2023/03/22 10:06:06;;;;;;;3.25;1.40;;;;;;;;;;5059555;28;20082;-83
2023/03/22 10:08:56;;;;;;;3.53;1.23;;;;;;;;;;5059560;28;20551;-82
2023/03/22 10:11:21;;;;;;;6.03;1.40;;;;;;;;;;5076336;28;20037;-83
2023/03/22 10:14:14;;;;;;;4.05;1.40;;;;;;;;;;5076737;28;20028;-81
2023/03/22 10:16:40;;;;;;;4.50;1.25;;;;;;;;;;5076132;28;20377;-82
2023/03/22 10:19:39;;;;;;;2.17;1.27;;;;;;;;;;5059069;28;20032;-82
2023/03/22 10:22:06;;;;;;;1.88;1.20;;;;;;;;;;5088294;28;20055;-82
2023/03/22 10:24:35;;;;;;;3.38;1.13;;;;;;;;;;5059110;28;20088;-83
2023/03/22 10:27:01;;;;;;;2.70;1.30;;;;;;;;;;5076102;28;20020;-84
2023/03/22 10:29:35;;;;;;;3.83;1.20;;;;;;;;;;5059884;28;20028;-84
2023/03/22 10:32:14;;;;;;;3.10;1.30;;;;;;;;;;5076770;28;20035;-83
2023/03/22 10:34:39;;;;;;;3.55;1.48;;;;;;;;;;5058944;28;20046;-83
2023/03/22 10:37:06;;;;;;;6.32;1.42;;;;;;;;;;5075966;28;20020;-84
2023/03/22 10:39:34;;;;;;;2.42;1.10;;;;;;;;;;5075564;28;20031;-83
2023/03/22 10:42:03;;;;;;;3.35;1.30;;;;;;;;;;5075870;28;20118;-84
2023/03/22 10:44:33;;;;;;;3.60;1.30;;;;;;;;;;5075828;28;20024;-85
2023/03/22 10:47:05;;;;;;;4.97;1.35;;;;;;;;;;5059127;28;20383;-83
2023/03/22 10:49:34;;;;;;;3.53;1.33;;;;;;;;;;5076014;28;20445;-84
2023/03/22 10:52:21;;;;;;;3.40;1.27;;;;;;;;;;5077759;28;20482;-84
2023/03/22 10:54:46;;;;;;;3.30;1.20;;;;;;;;;;5074052;28;20070;-83
2023/03/22 10:57:12;;;;;;;3.53;1.45;;;;;;;;;;5042298;28;20051;-83
2023/03/22 10:59:46;;;;;;;3.28;1.38;;;;;;;;;;5058972;28;20118;-83
2023/03/22 11:02:20;;;;;;;6.15;1.33;;;;;;;;;;5075604;28;20031;-85
2023/03/22 11:05:00;;;;;;;3.45;1.33;;;;;;;;;;5098341;28;20024;-83
2023/03/22 11:07:34;;;;;;;3.38;1.30;;;;;;;;;;5085551;28;20024;-84
2023/03/22 11:10:03;;;;;;;3.60;1.13;;;;;;;;;;5075991;28;20035;-84
2023/03/22 11:12:28;;;;;;;4.05;1.15;;;;;;;;;;5075508;28;20024;-84
2023/03/22 11:14:55;;;;;;;2.50;1.20;;;;;;;;;;5077194;28;20032;-83
2023/03/22 11:17:24;;;;;;;3.08;1.40;;;;;;;;;;5076139;28;20067;-83
2023/03/22 11:20:05;;;;;;;8.05;1.25;;;;;;;;;;5093436;28;20390;-84
2023/03/22 11:22:40;;;;;;;7.90;1.92;;;;;;;;;;5076693;28;20024;-83
2023/03/22 11:25:13;;;;;;;6.57;1.30;;;;;;;;;;5075815;28;20020;-84
2023/03/22 11:27:55;;;;;;;6.97;1.40;;;;;;;;;;5075181;28;20028;-82
2023/03/22 11:30:25;;;;;;;6.35;1.42;;;;;;;;;;5075798;28;20032;-82
2023/03/22 11:33:06;;;;;;;7.82;1.73;;;;;;;;;;5075092;28;20027;-83
2023/03/22 11:35:35;;;;;;;2.22;0.90;;;;;;;;;;5093184;28;20026;-85
2023/03/22 11:38:01;;;;;;;7.72;1.30;;;;;;;;;;5058257;28;20028;-84
2023/03/22 11:40:35;;;;;;;3.05;1.13;;;;;;;;;;5075195;28;20483;-82
2023/03/22 11:43:17;;;;;;;7.13;1.42;;;;;;;;;;5058378;28;20032;-80
2023/03/22 11:45:44;;;;;;;2.58;1.02;;;;;;;;;;5075035;28;20093;-82
2023/03/22 11:48:24;;;;;;;4.28;1.35;;;;;;;;;;5058498;28;20028;-86
2023/03/22 11:50:52;;;;;;;6.60;1.45;;;;;;;;;;5075395;28;20510;-84
2023/03/22 11:53:23;;;;;;;3.70;2.00;;;;;;;;;;5059002;28;20020;-84
2023/03/22 11:55:50;;;;;;;6.00;3.00;;;;;;;;;;5076190;28;20020;-84
2023/03/22 11:58:42;;;;;;;6.18;4.47;;;;;;;;;;5058516;28;20077;-84
2023/03/22 12:01:14;;;;;;;9.07;5.20;;;;;;;;;;5075388;28;20024;-82
2023/03/22 12:03:42;;;;;;;7.75;6.18;;;;;;;;;;5075082;28;20020;-85
2023/03/22 12:06:31;;;;;;;9.40;6.47;;;;;;;;;;5074908;28;20035;-83
2023/03/22 12:09:24;;;;;;;8.70;7.10;;;;;;;;;;5059380;28;20020;-83
2023/03/22 12:11:58;;;;;;;11.63;7.60;;;;;;;;;;5092320;28;20063;-84
2023/03/22 12:14:45;;;;;;;10.90;7.82;;;;;;;;;;5059943;28;20119;-83
2023/03/22 12:17:39;;;;;;;9.75;7.85;;;;;;;;;;5061621;28;20457;-82
2023/03/22 12:20:30;;;;;;;9.57;8.57;;;;;;;;;;5096680;28;20428;-83
2023/03/22 12:22:56;;;;;;;9.07;8.15;;;;;;;;;;5096686;28;20107;-86
2023/03/22 12:25:29;;;;;;;9.77;8.35;;;;;;;;;;5078845;28;20103;-84
2023/03/22 12:28:05;;;;;;;8.32;7.53;;;;;;;;;;5061920;28;20024;-85
2023/03/22 12:30:38;;;;;;;11.65;7.93;;;;;;;;;;5078188;28;20382;-79
2023/03/22 12:33:09;;;;;;;7.68;6.88;;;;;;;;;;5061517;28;20031;-81
2023/03/22 12:35:37;;;;;;;7.57;6.53;;;;;;;;;;5061040;28;20109;-81
2023/03/22 12:38:26;;;;;;;7.95;7.25;;;;;;;;;;5078179;28;20035;-81
2023/03/22 12:40:53;;;;;;;8.15;6.35;;;;;;;;;;5077729;28;20020;-80
2023/03/22 12:43:31;;;;;;;10.10;5.88;;;;;;;;;;5077608;28;20047;-78
2023/03/22 12:45:58;;;;;;;8.38;6.60;;;;;;;;;;5061053;28;20063;-81
2023/03/22 12:48:32;;;;;;;10.10;5.90;;;;;;;;;;5060860;28;20497;-82
2023/03/22 12:51:03;;;;;;;10.50;5.75;;;;;;;;;;5077657;28;20051;-81
2023/03/22 12:53:41;;;;;;;6.20;5.22;;;;;;;;;;5060648;28;20069;-81
2023/03/22 12:56:08;;;;;;;8.18;5.10;;;;;;;;;;5078747;28;20030;-84
2023/03/22 12:58:34;;;;;;;9.20;5.03;;;;;;;;;;5078493;28;20031;-85
2023/03/22 13:01:19;;;;;;;8.10;4.90;;;;;;;;;;5095952;28;20036;-85
2023/03/22 13:03:49;;;;;;;11.45;4.70;;;;;;;;;;5060564;28;20032;-85
2023/03/22 13:06:35;;;;;;;6.30;4.60;;;;;;;;;;5060608;28;20043;-83
2023/03/22 13:09:33;;;;;;;5.63;4.38;;;;;;;;;;5077405;28;20032;-83
2023/03/22 13:12:17;;;;;;;5.78;4.35;;;;;;;;;;5077631;28;20024;-85
2023/03/22 13:14:56;;;;;;;5.10;3.60;;;;;;;;;;5095846;28;20483;-87
2023/03/22 13:17:21;;;;;;;6.97;3.72;;;;;;;;;;5061351;28;20057;-85
2023/03/22 13:19:59;;;;;;;6.13;4.10;;;;;;;;;;5095230;28;20081;-84
2023/03/22 13:22:29;;;;;;;3.75;3.13;;;;;;;;;;5077950;28;20032;-84
2023/03/22 13:25:15;;;;;;;3.95;2.92;;;;;;;;;;5060001;28;20028;-84
2023/03/22 13:27:43;;;;;;;6.95;3.65;;;;;;;;;;5097385;28;20455;-84
2023/03/22 13:30:29;;;;;;;4.85;2.58;;;;;;;;;;5095350;28;20520;-83
2023/03/22 13:33:12;;;;;;;4.32;2.83;;;;;;;;;;5059980;28;20026;-82
2023/03/22 13:35:43;;;;;;;5.40;2.55;;;;;;;;;;5077017;28;20016;-83
2023/03/22 13:38:16;;;;;;;4.28;2.60;;;;;;;;;;5076980;28;20102;-83
2023/03/22 13:40:51;;;;;;;5.40;2.47;;;;;;;;;;5060438;28;20030;-82
2023/03/22 13:43:19;;;;;;;4.22;2.50;;;;;;;;;;5076725;28;20024;-82
2023/03/22 13:46:03;;;;;;;2.65;2.08;;;;;;;;;;5095086;28;20039;-84
2023/03/22 13:48:47;;;;;;;;;;;;;;;;;;5076974;28;20106;-84
2023/03/22 13:51:24;;;;;;;3.45;2.20;;;;;;;;;;5094460;28;19955;-84
2023/03/22 13:54:06;;;;;;;4.47;2.20;;;;;;;;;;5094405;28;20561;-82
2023/03/22 13:57:01;;;;;;;2.45;2.00;;;;;;;;;;5094551;28;20386;-83
2023/03/22 13:59:26;;;;;;;;;;;;;;;;;;5077293;28;20028;-79
2023/03/22 14:02:14;;;;;;;2.00;1.58;;;;;;;;;;5076245;28;19908;-82
2023/03/22 14:04:48;;;;;;;2.67;1.70;;;;;;;;;;5094495;28;20055;-82
2023/03/22 14:07:38;;;;;;;3.53;1.80;;;;;;;;;;5076694;28;20024;-83
2023/03/22 14:10:15;;;;;;;2.35;1.60;;;;;;;;;;5076190;28;20019;-84
2023/03/22 14:12:46;;;;;;;2.72;1.60;;;;;;;;;;5059913;28;20073;-84
2023/03/22 14:15:22;;;;;;;7.78;1.73;;;;;;;;;;5076217;28;20032;-84
2023/03/22 14:18:25;;;;;;;2.67;1.58;;;;;;;;;;5076366;28;20050;-83
2023/03/22 14:20:54;;;;;;;4.55;1.60;;;;;;;;;;5075782;28;20043;-84
2023/03/22 14:23:24;;;;;;;3.33;1.73;;;;;;;;;;5076175;28;20032;-84
2023/03/22 14:25:50;;;;;;;5.38;1.77;;;;;;;;;;5076311;28;20031;-85
2023/03/22 14:28:32;;;;;;;2.58;1.60;;;;;;;;;;5059810;28;20028;-84
2023/03/22 14:30:58;;;;;;;5.82;1.67;;;;;;;;;;5059320;28;20112;-84
2023/03/22 14:33:25;;;;;;;2.70;1.40;;;;;;;;;;5076167;28;20056;-83
2023/03/22 14:35:57;;;;;;;5.90;1.70;;;;;;;;;;5076262;28;20020;-83
2023/03/22 14:38:31;;;;;;;3.83;1.80;;;;;;;;;;5075698;28;20030;-83
2023/03/22 14:41:06;;;;;;;2.20;1.50;;;;;;;;;;5076634;28;20350;-83
2023/03/22 14:43:31;;;;;;;1.88;1.35;;;;;;;;;;5075796;28;20027;-83
2023/03/22 14:46:05;;;;;;;2.72;1.55;;;;;;;;;;5096033;28;20340;-83
2023/03/22 14:48:33;;;;;;;2.30;1.17;;;;;;;;;;5093631;28;20478;-83
2023/03/22 14:51:02;;;;;;;4.07;1.60;;;;;;;;;;5075619;28;20094;-84
2023/03/22 14:53:32;;;;;;;2.17;1.23;;;;;;;;;;5058840;28;20032;-83
2023/03/22 14:55:57;;;;;;;2.65;1.30;;;;;;;;;;5075674;28;20112;-83
2023/03/22 14:58:31;;;;;;;1.98;1.30;;;;;;;;;;5059199;28;20063;-83
2023/03/22 15:01:02;;;;;;;1.80;1.40;;;;;;;;;;5075453;28;20028;-83
2023/03/22 15:03:30;;;;;;;2.35;1.17;;;;;;;;;;5058865;28;20032;-82